createdAt,value
2018-03-30T00:01:35.607Z,94.80
2018-03-30T00:04:03.899Z,94.90
2018-03-30T00:06:31.412Z,94.90
2018-03-30T00:08:58.948Z,94.90
2018-03-30T00:11:28.327Z,94.90
2018-03-30T00:13:55.887Z,94.80
2018-03-30T00:16:23.404Z,94.70
2018-03-30T00:18:50.915Z,94.80
2018-03-30T00:21:18.460Z,95.00
2018-03-30T00:23:45.979Z,95.00
2018-03-30T00:26:13.521Z,94.60
2018-03-30T00:28:41.048Z,94.40
2018-03-30T00:31:08.584Z,94.20
2018-03-30T00:33:36.883Z,94.80
2018-03-30T00:36:04.405Z,94.80
2018-03-30T00:38:32.728Z,94.50
2018-03-30T00:41:00.237Z,94.80
2018-03-30T00:43:28.530Z,94.70
2018-03-30T00:45:56.822Z,94.60
2018-03-30T00:48:24.710Z,94.60
2018-03-30T00:50:52.260Z,94.80
2018-03-30T00:53:31.638Z,94.90
2018-03-30T00:55:59.169Z,94.90
2018-03-30T00:58:26.699Z,95.10
2018-03-30T01:00:54.222Z,95.30
2018-03-30T01:03:21.767Z,95.30
2018-03-30T01:05:49.285Z,95.40
2018-03-30T01:08:16.867Z,95.60
2018-03-30T01:10:44.386Z,95.70
2018-03-30T01:13:11.905Z,95.40
2018-03-30T01:15:39.459Z,95.40
2018-03-30T01:18:06.993Z,95.60
2018-03-30T01:20:34.537Z,95.50
2018-03-30T01:23:02.077Z,95.50
2018-03-30T01:25:29.595Z,95.40
2018-03-30T01:27:57.121Z,95.40
2018-03-30T01:30:24.652Z,95.50
2018-03-30T01:32:52.203Z,95.60
2018-03-30T01:35:20.491Z,95.30
2018-03-30T01:37:48.014Z,95.30
2018-03-30T01:40:15.551Z,95.20
2018-03-30T01:42:43.078Z,95.30
2018-03-30T01:45:10.625Z,95.60
2018-03-30T01:47:38.912Z,95.50
2018-03-30T01:50:06.492Z,95.50
2018-03-30T01:52:34.035Z,95.40
2018-03-30T01:55:01.562Z,95.50
2018-03-30T01:57:29.118Z,95.40
2018-03-30T01:59:56.647Z,95.50
2018-03-30T02:02:24.159Z,95.10
2018-03-30T02:04:51.694Z,95.30
2018-03-30T02:07:19.995Z,95.00
2018-03-30T02:09:47.536Z,95.00
2018-03-30T02:12:15.831Z,95.40
2018-03-30T02:14:43.341Z,95.40
2018-03-30T02:17:11.652Z,95.60
2018-03-30T02:19:39.943Z,95.80
2018-03-30T02:22:07.476Z,95.80
2018-03-30T02:24:35.013Z,95.70
2018-03-30T02:27:02.528Z,95.90
2018-03-30T02:29:30.068Z,95.40
2018-03-30T02:31:58.362Z,95.50
2018-03-30T02:34:25.920Z,95.40
2018-03-30T02:36:53.433Z,95.40
2018-03-30T02:39:20.960Z,95.40
2018-03-30T02:41:48.505Z,95.50
2018-03-30T02:44:16.032Z,95.70
2018-03-30T02:46:44.365Z,95.10
2018-03-30T02:49:11.878Z,95.10
2018-03-30T02:51:40.171Z,95.40
2018-03-30T02:54:07.812Z,95.40
2018-03-30T02:56:35.357Z,95.70
2018-03-30T03:01:42.183Z,96.20
2018-03-30T03:04:09.708Z,96.30
2018-03-30T03:06:38.044Z,96.50
2018-03-30T03:09:05.557Z,96.50
2018-03-30T03:11:33.844Z,96.60
2018-03-30T03:14:02.143Z,96.70
2018-03-30T03:16:29.662Z,96.70
2018-03-30T03:18:58.002Z,96.80
2018-03-30T03:21:25.518Z,96.80
2018-03-30T03:23:53.064Z,96.80
2018-03-30T03:26:21.484Z,96.70
2018-03-30T03:28:49.041Z,96.70
2018-03-30T03:31:16.647Z,96.90
2018-03-30T03:33:44.146Z,97.00
2018-03-30T03:36:11.653Z,97.10
2018-03-30T03:38:39.193Z,97.10
2018-03-30T03:41:06.709Z,97.20
2018-03-30T03:43:35.025Z,97.10
2018-03-30T03:46:02.551Z,97.10
2018-03-30T03:48:30.081Z,97.10
2018-03-30T03:50:58.378Z,97.30
2018-03-30T03:53:26.665Z,97.30
2018-03-30T03:55:54.222Z,97.40
2018-03-30T03:58:21.743Z,97.50
2018-03-30T04:00:49.254Z,97.50
2018-03-30T04:03:16.798Z,97.50
2018-03-30T04:05:44.320Z,97.50
2018-03-30T04:08:11.876Z,97.50
2018-03-30T04:10:39.394Z,97.50
2018-03-30T04:13:06.918Z,97.50
2018-03-30T04:15:35.239Z,97.50
2018-03-30T04:18:02.764Z,97.50
2018-03-30T04:20:30.330Z,97.50
2018-03-30T04:22:57.859Z,97.50
2018-03-30T04:25:25.377Z,97.50
2018-03-30T04:27:52.920Z,97.50
2018-03-30T04:30:20.438Z,97.50
2018-03-30T04:32:48.763Z,97.60
2018-03-30T04:35:16.273Z,97.60
2018-03-30T04:37:43.778Z,97.60
2018-03-30T04:40:11.315Z,97.50
2018-03-30T04:42:38.847Z,97.60
2018-03-30T04:45:06.390Z,97.60
2018-03-30T04:47:33.913Z,97.50
2018-03-30T04:50:01.478Z,97.50
2018-03-30T04:52:29.736Z,97.50
2018-03-30T04:54:57.256Z,97.50
2018-03-30T04:57:25.587Z,97.70
2018-03-30T04:59:53.099Z,97.70
2018-03-30T05:02:21.392Z,97.70
2018-03-30T05:04:48.924Z,97.70
2018-03-30T05:07:16.445Z,97.80
2018-03-30T05:09:43.996Z,97.80
2018-03-30T05:12:11.514Z,97.90
2018-03-30T05:14:39.804Z,97.90
2018-03-30T05:17:07.344Z,97.90
2018-03-30T05:19:34.866Z,97.90
2018-03-30T05:22:02.414Z,97.80
2018-03-30T05:24:29.923Z,97.70
2018-03-30T05:26:58.220Z,97.90
2018-03-30T05:29:25.758Z,97.80
2018-03-30T05:31:54.053Z,97.90
2018-03-30T05:34:21.585Z,97.90
2018-03-30T05:36:49.157Z,97.80
2018-03-30T05:39:16.708Z,97.80
2018-03-30T05:41:44.263Z,97.90
2018-03-30T05:44:11.775Z,98.00
2018-03-30T05:46:39.339Z,98.00
2018-03-30T05:49:06.846Z,98.30
2018-03-30T05:51:34.369Z,98.10
2018-03-30T05:54:01.917Z,98.10
2018-03-30T05:56:29.444Z,98.10
2018-03-30T05:58:57.760Z,98.20
2018-03-30T06:01:25.269Z,98.20
2018-03-30T06:03:53.562Z,98.40
2018-03-30T06:06:21.099Z,98.40
2018-03-30T06:08:49.389Z,98.20
2018-03-30T06:11:16.937Z,98.20
2018-03-30T06:13:45.233Z,98.10
2018-03-30T06:16:12.747Z,98.10
2018-03-30T06:18:40.281Z,98.20
2018-03-30T06:21:07.797Z,98.30
2018-03-30T06:23:36.114Z,98.70
2018-03-30T06:26:03.648Z,98.70
2018-03-30T06:28:31.183Z,99.20
2018-03-30T06:30:59.503Z,99.60
2018-03-30T06:33:27.032Z,99.60
2018-03-30T06:35:55.331Z,94.60
2018-03-30T06:38:22.837Z,94.60
2018-03-30T06:40:50.361Z,94.10
2018-03-30T06:43:17.921Z,93.80
2018-03-30T06:45:45.433Z,94.30
2018-03-30T06:48:13.722Z,95.10
2018-03-30T06:50:42.045Z,96.10
2018-03-30T06:53:09.564Z,95.80
2018-03-30T06:55:37.083Z,95.80
2018-03-30T06:58:04.644Z,95.70
2018-03-30T07:00:32.162Z,96.10
2018-03-30T07:02:59.681Z,96.50
2018-03-30T07:05:28.011Z,96.80
2018-03-30T07:07:55.541Z,96.80
2018-03-30T07:10:23.076Z,96.90
2018-03-30T07:12:51.375Z,97.40
2018-03-30T07:15:18.906Z,97.40
2018-03-30T07:17:47.215Z,97.30
2018-03-30T07:20:14.739Z,97.30
2018-03-30T07:22:42.282Z,97.30
2018-03-30T07:25:09.800Z,97.40
2018-03-30T07:27:37.352Z,97.30
2018-03-30T07:30:04.881Z,97.70
2018-03-30T07:32:32.421Z,97.40
2018-03-30T07:34:59.974Z,97.00
2018-03-30T07:37:27.502Z,96.00
2018-03-30T07:39:55.041Z,95.60
2018-03-30T07:42:22.563Z,95.90
2018-03-30T07:44:50.096Z,95.70
2018-03-30T07:47:17.618Z,96.00
2018-03-30T07:49:45.161Z,95.60
2018-03-30T07:52:13.438Z,95.60
2018-03-30T07:54:40.967Z,95.60
2018-03-30T07:57:08.503Z,95.80
2018-03-30T07:59:36.015Z,95.70
2018-03-30T08:02:03.826Z,95.40
2018-03-30T08:04:31.345Z,95.10
2018-03-30T08:06:58.873Z,95.30
2018-03-30T08:09:26.408Z,95.30
2018-03-30T08:11:53.941Z,94.90
2018-03-30T08:14:21.455Z,94.10
2018-03-30T08:16:48.997Z,94.00
2018-03-30T08:19:16.628Z,94.40
2018-03-30T08:21:44.142Z,94.10
2018-03-30T08:24:12.443Z,94.50
2018-03-30T08:26:39.980Z,94.50
2018-03-30T08:29:08.278Z,94.20
2018-03-30T08:31:35.821Z,94.10
2018-03-30T08:34:03.480Z,93.80
2018-03-30T08:36:30.997Z,93.50
2018-03-30T08:38:58.556Z,93.90
2018-03-30T08:41:26.074Z,94.30
2018-03-30T08:43:53.589Z,93.80
2018-03-30T08:46:21.147Z,93.10
2018-03-30T08:48:48.650Z,93.10
2018-03-30T08:51:16.187Z,93.40
2018-03-30T08:53:44.530Z,92.70
2018-03-30T08:56:12.066Z,92.70
2018-03-30T08:58:39.604Z,93.00
2018-03-30T09:01:07.144Z,92.20
2018-03-30T09:03:35.428Z,92.10
2018-03-30T09:06:03.774Z,92.00
2018-03-30T09:08:31.311Z,92.00
2018-03-30T09:10:58.860Z,92.60
2018-03-30T09:13:26.404Z,92.70
2018-03-30T09:15:53.948Z,92.60
2018-03-30T09:18:21.519Z,92.10
2018-03-30T09:20:49.047Z,91.40
2018-03-30T09:23:17.345Z,91.80
2018-03-30T09:25:44.877Z,91.80
2018-03-30T09:28:13.182Z,91.30
2018-03-30T09:30:40.770Z,91.30
2018-03-30T09:36:04.110Z,91.20
2018-03-30T09:38:32.399Z,90.70
2018-03-30T09:40:59.925Z,90.70
2018-03-30T09:43:27.467Z,90.90
2018-03-30T09:45:54.978Z,91.30
2018-03-30T09:48:22.545Z,90.40
2018-03-30T09:50:50.087Z,87.20
2018-03-30T09:53:18.363Z,90.60
2018-03-30T09:55:45.924Z,90.60
2018-03-30T09:58:13.466Z,87.20
2018-03-30T10:00:43.528Z,83.60
2018-03-30T10:03:11.078Z,83.50
2018-03-30T10:05:38.608Z,82.90
2018-03-30T10:08:07.011Z,81.80
2018-03-30T10:10:34.534Z,81.90
2018-03-30T10:13:02.848Z,83.60
2018-03-30T10:15:30.390Z,83.50
2018-03-30T10:17:57.926Z,81.30
2018-03-30T10:20:26.272Z,83.30
2018-03-30T10:22:53.796Z,83.30
2018-03-30T10:25:22.098Z,79.80
2018-03-30T10:27:49.678Z,79.80
2018-03-30T10:30:17.213Z,77.10
2018-03-30T10:32:44.738Z,78.00
2018-03-30T10:35:12.298Z,77.30
2018-03-30T10:37:39.833Z,73.40
2018-03-30T10:40:07.351Z,74.00
2018-03-30T10:42:34.900Z,75.20
2018-03-30T10:45:03.186Z,72.60
2018-03-30T10:47:30.732Z,72.40
2018-03-30T10:49:58.286Z,70.40
2018-03-30T10:52:25.818Z,68.30
2018-03-30T10:54:54.097Z,70.40
2018-03-30T10:57:22.438Z,72.30
2018-03-30T10:59:49.980Z,72.10
2018-03-30T11:02:17.492Z,67.10
2018-03-30T11:04:45.815Z,69.90
2018-03-30T11:07:13.344Z,69.90
2018-03-30T11:09:40.875Z,60.90
2018-03-30T11:12:08.436Z,62.20
2018-03-30T11:14:35.960Z,60.80
2018-03-30T11:17:03.490Z,63.30
2018-03-30T11:19:31.046Z,62.70
2018-03-30T11:21:58.575Z,58.80
2018-03-30T11:24:26.086Z,59.00
2018-03-30T11:26:53.636Z,60.20
2018-03-30T11:29:21.163Z,63.60
2018-03-30T11:31:49.458Z,59.70
2018-03-30T11:34:17.029Z,59.70
2018-03-30T11:36:44.546Z,61.50
2018-03-30T11:39:12.857Z,63.40
2018-03-30T11:41:40.405Z,63.40
2018-03-30T11:44:07.927Z,59.80
2018-03-30T11:46:35.455Z,59.40
2018-03-30T11:49:03.027Z,59.20
2018-03-30T11:51:30.546Z,59.90
2018-03-30T11:53:58.072Z,62.60
2018-03-30T11:56:25.615Z,63.10
2018-03-30T11:58:53.130Z,62.90
2018-03-30T12:01:20.660Z,60.90
2018-03-30T12:03:48.994Z,59.70
2018-03-30T12:06:16.520Z,59.70
2018-03-30T12:08:44.044Z,56.90
2018-03-30T12:11:11.590Z,57.40
2018-03-30T12:13:39.110Z,60.00
2018-03-30T12:16:06.652Z,61.40
2018-03-30T12:18:34.212Z,61.40
2018-03-30T12:21:01.738Z,61.10
2018-03-30T12:23:29.272Z,58.00
2018-03-30T12:25:56.840Z,61.00
2018-03-30T12:28:24.364Z,58.90
2018-03-30T12:30:51.884Z,60.20
2018-03-30T12:33:20.216Z,63.80
2018-03-30T12:35:47.753Z,63.80
2018-03-30T12:38:15.270Z,63.30
2018-03-30T12:40:42.828Z,60.50
2018-03-30T12:43:10.371Z,63.50
2018-03-30T12:45:37.914Z,64.20
2018-03-30T12:48:05.474Z,64.00
2018-03-30T12:50:33.023Z,63.30
2018-03-30T12:53:00.543Z,61.30
2018-03-30T12:55:28.110Z,63.10
2018-03-30T12:57:55.642Z,62.20
2018-03-30T13:00:23.177Z,63.60
2018-03-30T13:02:50.747Z,65.40
2018-03-30T13:05:18.277Z,63.60
2018-03-30T13:07:45.811Z,63.70
2018-03-30T13:10:13.368Z,63.60
2018-03-30T13:12:40.896Z,66.70
2018-03-30T13:15:08.411Z,65.50
2018-03-30T13:17:35.967Z,64.50
2018-03-30T13:20:03.485Z,65.20
2018-03-30T13:22:31.777Z,65.00
2018-03-30T13:24:59.336Z,65.00
2018-03-30T13:27:27.096Z,66.30
2018-03-30T13:29:55.379Z,67.10
2018-03-30T13:32:22.938Z,67.20
2018-03-30T13:34:50.460Z,68.50
2018-03-30T13:37:17.985Z,68.50
2018-03-30T13:39:45.535Z,68.70
2018-03-30T13:42:13.105Z,69.10
2018-03-30T13:44:40.620Z,69.40
2018-03-30T13:47:08.935Z,70.20
2018-03-30T13:49:36.455Z,70.20
2018-03-30T13:52:11.596Z,70.60
2018-03-30T13:54:40.782Z,70.00
2018-03-30T13:57:28.715Z,70.30
2018-03-30T13:59:58.183Z,70.30
2018-03-30T14:02:33.496Z,71.00
2018-03-30T14:05:04.723Z,69.00
2018-03-30T14:07:56.891Z,69.40
2018-03-30T14:10:27.366Z,69.40
2018-03-30T14:12:56.510Z,70.70
2018-03-30T14:15:29.819Z,71.20
2018-03-30T14:18:12.949Z,71.40
2018-03-30T14:20:43.072Z,70.40
2018-03-30T14:23:11.350Z,69.90
2018-03-30T14:25:38.907Z,69.20
2018-03-30T14:28:10.903Z,70.20
2018-03-30T14:30:50.195Z,70.00
2018-03-30T14:33:19.605Z,69.00
2018-03-30T14:35:50.675Z,69.20
2018-03-30T14:38:28.866Z,69.90
2018-03-30T14:40:56.417Z,67.80
2018-03-30T14:43:24.703Z,68.00
2018-03-30T14:46:01.915Z,68.40
2018-03-30T14:48:31.354Z,68.80
2018-03-30T14:54:35.867Z,68.20
2018-03-30T15:00:20.019Z,67.10
2018-03-30T15:02:53.769Z,67.00
2018-03-30T15:18:59.647Z,64.80
2018-03-30T15:21:37.893Z,65.00
2018-03-30T15:24:10.079Z,64.80
2018-03-30T15:26:59.518Z,64.20
2018-03-30T15:29:31.514Z,64.60
2018-03-30T15:35:01.474Z,65.40
2018-03-30T15:37:29.744Z,65.50
2018-03-30T15:40:10.061Z,65.20
2018-03-30T15:42:40.490Z,64.60
2018-03-30T15:48:07.462Z,65.30
2018-03-30T15:50:35.789Z,64.50
2018-03-30T15:53:03.310Z,64.50
2018-03-30T15:55:31.608Z,64.90
2018-03-30T15:57:59.188Z,65.00
2018-03-30T16:00:26.707Z,64.90
2018-03-30T16:02:54.998Z,64.90
2018-03-30T16:05:22.541Z,64.90
2018-03-30T16:07:50.847Z,64.00
2018-03-30T16:10:24.183Z,64.00
2018-03-30T16:12:53.554Z,63.40
2018-03-30T16:15:21.084Z,63.00
2018-03-30T16:17:49.407Z,63.40
2018-03-30T16:20:16.447Z,63.40
2018-03-30T16:22:43.487Z,63.50
2018-03-30T16:25:10.567Z,64.90
2018-03-30T16:27:37.628Z,65.00
2018-03-30T16:30:04.673Z,64.60
2018-03-30T16:32:31.733Z,65.10
2018-03-30T16:34:59.602Z,64.50
2018-03-30T16:37:27.423Z,64.80
2018-03-30T16:39:54.499Z,64.80
2018-03-30T16:42:21.550Z,64.30
2018-03-30T16:44:48.595Z,64.50
2018-03-30T16:47:15.673Z,66.00
2018-03-30T16:49:42.696Z,65.50
2018-03-30T16:52:10.485Z,64.80
2018-03-30T16:54:37.547Z,64.60
2018-03-30T16:57:04.597Z,65.40
2018-03-30T16:59:31.675Z,65.50
2018-03-30T17:01:58.707Z,65.50
2018-03-30T17:04:25.776Z,65.90
2018-03-30T17:06:52.826Z,67.00
2018-03-30T17:09:19.902Z,67.50
2018-03-30T17:11:47.690Z,68.80
2018-03-30T17:14:14.723Z,68.80
2018-03-30T17:16:42.560Z,69.90
2018-03-30T17:19:09.590Z,69.90
2018-03-30T17:21:36.632Z,70.90
2018-03-30T17:24:03.716Z,71.50
2018-03-30T17:26:31.527Z,73.00
2018-03-30T17:28:58.576Z,73.00
2018-03-30T17:31:25.625Z,73.50
2018-03-30T17:33:52.654Z,73.50
2018-03-30T17:36:19.711Z,73.40
2018-03-30T17:38:46.752Z,73.70
2018-03-30T17:41:13.825Z,74.40
2018-03-30T17:43:40.877Z,74.50
2018-03-30T17:46:07.915Z,75.00
2018-03-30T17:48:34.978Z,75.30
2018-03-30T17:51:02.063Z,75.30
2018-03-30T17:53:29.874Z,76.30
2018-03-30T17:55:56.932Z,76.20
2018-03-30T17:58:24.011Z,76.40
2018-03-30T18:00:51.064Z,77.00
2018-03-30T18:03:18.885Z,78.30
2018-03-30T18:05:45.946Z,78.30
2018-03-30T18:08:12.992Z,77.70
2018-03-30T18:10:40.039Z,77.60
2018-03-30T18:13:07.110Z,77.40
2018-03-30T18:15:34.159Z,77.00
2018-03-30T18:18:01.197Z,76.80
2018-03-30T18:20:28.253Z,76.70
2018-03-30T18:22:55.277Z,76.70
2018-03-30T18:25:22.348Z,76.60
2018-03-30T18:27:49.386Z,76.70
2018-03-30T18:30:16.426Z,78.40
2018-03-30T18:32:43.492Z,78.50
2018-03-30T18:35:10.602Z,78.70
2018-03-30T18:37:37.651Z,80.00
2018-03-30T18:40:04.683Z,80.40
2018-03-30T18:42:31.748Z,82.50
2018-03-30T18:44:58.802Z,83.20
2018-03-30T18:47:25.849Z,84.20
2018-03-30T18:49:52.912Z,85.10
2018-03-30T18:52:19.948Z,86.10
2018-03-30T18:54:46.987Z,86.90
2018-03-30T18:57:14.041Z,87.70
2018-03-30T18:59:41.081Z,88.50
2018-03-30T19:02:08.143Z,87.90
2018-03-30T19:04:35.201Z,87.50
2018-03-30T19:07:02.255Z,86.10
2018-03-30T19:09:29.312Z,85.70
2018-03-30T19:11:57.124Z,85.90
2018-03-30T19:14:24.242Z,85.90
2018-03-30T19:16:51.251Z,85.50
2018-03-30T19:19:18.283Z,85.10
2018-03-30T19:21:45.333Z,85.90
2018-03-30T19:24:12.381Z,86.80
2018-03-30T19:26:39.462Z,87.10
2018-03-30T19:29:07.281Z,86.80
2018-03-30T19:31:34.326Z,86.80
2018-03-30T19:34:01.388Z,87.60
2018-03-30T19:36:28.430Z,87.10
2018-03-30T19:38:55.515Z,86.60
2018-03-30T19:41:22.564Z,86.30
2018-03-30T19:43:49.602Z,85.20
2018-03-30T19:46:16.674Z,85.40
2018-03-30T19:48:44.479Z,84.50
2018-03-30T19:51:11.679Z,84.50
2018-03-30T19:53:38.701Z,83.40
2018-03-30T19:56:05.740Z,82.00
2018-03-30T19:58:32.811Z,79.80
2018-03-30T20:00:59.858Z,78.70
2018-03-30T20:03:26.926Z,78.90
2018-03-30T20:05:54.959Z,79.80
2018-03-30T20:08:22.007Z,79.70
2018-03-30T20:10:49.082Z,79.80
2018-03-30T20:13:16.116Z,80.00
2018-03-30T20:15:43.179Z,79.40
2018-03-30T20:18:10.983Z,79.40
2018-03-30T20:20:38.016Z,78.90
2018-03-30T20:23:05.057Z,78.80
2018-03-30T20:25:32.123Z,77.60
2018-03-30T20:27:59.243Z,78.50
2018-03-30T20:30:27.064Z,77.50
2018-03-30T20:32:54.102Z,78.40
2018-03-30T20:35:21.150Z,77.50
2018-03-30T20:37:48.198Z,77.40
2018-03-30T20:40:15.253Z,78.40
2018-03-30T20:42:42.375Z,78.50
2018-03-30T20:45:10.344Z,79.00
2018-03-30T20:47:37.417Z,79.00
2018-03-30T20:50:04.471Z,79.40
2018-03-30T20:52:31.542Z,79.30
2018-03-30T20:54:58.590Z,79.80
2018-03-30T20:57:25.636Z,80.00
2018-03-30T20:59:52.692Z,79.70
2018-03-30T21:02:19.724Z,79.60
2018-03-30T21:04:46.796Z,79.50
2018-03-30T21:07:14.616Z,78.60
2018-03-30T21:09:41.654Z,78.50
2018-03-30T21:12:08.713Z,78.20
2018-03-30T21:14:35.759Z,77.90
2018-03-30T21:17:02.827Z,77.90
2018-03-30T21:19:29.875Z,78.10
2018-03-30T21:21:56.916Z,78.10
2018-03-30T21:24:23.979Z,78.90
2018-03-30T21:26:51.008Z,79.60
2018-03-30T21:29:18.068Z,79.60
2018-03-30T21:31:45.142Z,80.00
2018-03-30T21:34:12.938Z,80.60
2018-03-30T21:39:14.304Z,80.40
2018-03-30T21:41:41.374Z,80.30
2018-03-30T21:44:08.421Z,80.10
2018-03-30T21:46:35.461Z,79.80
2018-03-30T21:49:02.539Z,79.70
2018-03-30T21:51:29.591Z,79.20
2018-03-30T21:53:56.663Z,79.20
2018-03-30T21:56:24.480Z,79.00
2018-03-30T21:58:51.529Z,79.00
2018-03-30T22:01:18.584Z,79.00
2018-03-30T22:03:45.640Z,79.30
2018-03-30T22:06:12.709Z,79.30
2018-03-30T22:08:40.507Z,79.80
2018-03-30T22:11:07.539Z,79.80
2018-03-30T22:13:34.698Z,79.40
2018-03-30T22:16:01.738Z,79.20
2018-03-30T22:18:28.802Z,80.00
2018-03-30T22:20:55.847Z,80.80
2018-03-30T22:23:22.873Z,81.30
2018-03-30T22:25:50.694Z,83.10
2018-03-30T22:28:17.734Z,83.10
2018-03-30T22:30:44.790Z,83.60
2018-03-30T22:33:11.895Z,83.70
2018-03-30T22:35:38.899Z,84.10
2018-03-30T22:38:05.940Z,83.30
2018-03-30T22:40:32.980Z,82.60
2018-03-30T22:43:00.042Z,82.10
2018-03-30T22:45:27.090Z,81.60
2018-03-30T22:47:54.146Z,81.10
2018-03-30T22:50:21.980Z,81.10
2018-03-30T22:52:49.027Z,81.60
2018-03-30T22:55:16.087Z,81.70
2018-03-30T22:57:43.120Z,82.10
2018-03-30T23:00:10.153Z,82.50
2018-03-30T23:02:37.186Z,82.00
2018-03-30T23:05:04.203Z,81.40
2018-03-30T23:07:32.063Z,81.60
2018-03-30T23:09:59.086Z,81.60
2018-03-30T23:12:26.119Z,80.50
2018-03-30T23:14:53.263Z,80.10
2018-03-30T23:17:20.305Z,80.10
2018-03-30T23:19:47.367Z,79.30
2018-03-30T23:22:14.427Z,79.20
2018-03-30T23:24:41.469Z,79.30
2018-03-30T23:27:09.282Z,78.70
2018-03-30T23:29:37.078Z,77.90
2018-03-30T23:32:04.140Z,77.90
2018-03-30T23:34:31.174Z,77.50
2018-03-30T23:36:58.200Z,77.30
2018-03-30T23:39:25.257Z,77.60
2018-03-30T23:41:52.299Z,77.80
2018-03-30T23:44:19.366Z,77.20
2018-03-30T23:46:46.402Z,77.40
2018-03-30T23:49:13.421Z,77.00
2018-03-30T23:51:41.344Z,77.10
2018-03-30T23:54:08.379Z,77.00
2018-03-30T23:56:35.404Z,77.50
2018-03-30T23:59:02.468Z,77.10
